Nearby METAR Reports

 

KW29 - Stevensville, Maryland, USA
Distance from station: SSW 13mi, 21km
Updated: Fri, 22-Jun-2018 8:55am EDT
Overcast
Overcast
 Wind from E
Wind: E 10 mph , 17 km/h
Temperature: 72°F , 22°C
Dew Point: 66°F , 19°C
Humidity: 83%
Barometer: 29.90 inHg , 1012.5 hPa
Clouds: Overcast
Visibility: 10 miles , 16 km
Cloud details: Mostly cloudy 6500 ft
Overcast 9500 ft
2018/06/22 12:55 KW29 221255Z AUTO 09009KT 10SM BKN065 OVC095 22/19 A2990 RMK AO2
KMTN - Baltimore/Martin, Maryland, USA
Distance from station: NW 13mi, 22km
Updated: Fri, 22-Jun-2018 8:45am EDT
Mostly cloudy
Mostly cloudy
 Wind from E
Wind: E 8 mph , 13 km/h
Temperature: 73°F , 23°C
Dew Point: 66°F , 19°C
Humidity: 78%
Barometer: 29.92 inHg , 1013.2 hPa
Clouds: Mostly cloudy
Visibility: 10 miles , 16 km
Cloud details: Mostly cloudy 10000 ft
2018/06/22 12:45 KMTN 221245Z 08007KT 10SM BKN100 23/19 A2992
 
KNAK - Annapolis/Naval, Maryland, USA
Distance from station: SW 18mi, 28km
Updated: Fri, 22-Jun-2018 8:54am EDT
Light rain, Overcast
Light rain, Overcast
 Wind from E
Wind: E 9 mph , 15 km/h
Temperature: 73°F , 23°C
Dew Point: 66°F , 19°C
Humidity: 78%
Barometer: 29.90 inHg , 1012.5 hPa
Summary: Light rain
Clouds: Overcast
Visibility: 10 miles , 16 km
Cloud details: Overcast 9500 ft
2018/06/22 12:54 KNAK 221254Z AUTO 10008KT 10SM -RA OVC095 23/19 A2990 RMK AO2 RAB26 SLP125 P0000 T02330189
KAPG - Aberdeen/Phillip, Maryland, USA
Distance from station: NNE 21mi, 34km
Updated: Fri, 22-Jun-2018 8:52am EDT
Overcast
Overcast
 Wind from E
Wind: E 12 mph , 19 km/h
Temperature: 72°F , 22°C
Dew Point: 64°F , 18°C
Humidity: 78%
Barometer: 29.92 inHg , 1013.2 hPa
Clouds: Overcast
Visibility: 7 miles , 11 km
Cloud details: Mostly cloudy 10000 ft
Overcast 12000 ft
2018/06/22 12:52 KAPG 221252Z 08010KT 7SM BKN100 OVC120 22/18 A2992
 
KDMH - Baltimore/Dwntwn, Maryland, USA
Distance from station: WNW 21mi, 34km
Updated: Fri, 22-Jun-2018 8:54am EDT

 
Temperature: 75°F , 24°C
Dew Point: 64°F , 18°C
Humidity: 69%
Barometer: 29.91 inHg , 1012.9 hPa
2018/06/22 12:54 KDMH 221254Z AUTO 24/18 A2991 RMK AO1 SLP128 T02390183 $
KBWI - Balto/Wash Intl, Maryland, USA
Distance from station: W 23mi, 37km
Updated: Fri, 22-Jun-2018 8:54am EDT
Light rain, Overcast
Light rain, Overcast
 Wind from E
Wind: E 8 mph , 13 km/h
Temperature: 72°F , 22°C
Dew Point: 64°F , 18°C
Humidity: 78%
Barometer: 29.90 inHg , 1012.5 hPa
Summary: Light rain
Clouds: Overcast
Visibility: 10 miles , 16 km
Cloud details: Few Clouds 3800 ft
Mostly cloudy 7000 ft
Overcast 9500 ft
2018/06/22 12:54 KBWI 221254Z 09007KT 10SM -RA FEW038 BKN070 OVC095 22/18 A2990 RMK AO2 SLP124 P0000 T02220178
 
KESN - Easton/Newnam, Maryland, USA
Distance from station: SSE 27mi, 44km
Updated: Fri, 22-Jun-2018 8:56am EDT
Overcast
Overcast
 Wind from E
Wind: E 12 mph , 19 km/h, Gust: 16 mph , 26 km/h
Temperature: 72°F , 22°C
Dew Point: 66°F , 19°C
Humidity: 83%
Barometer: 29.93 inHg , 1013.5 hPa
Clouds: Overcast
Visibility: 10 miles , 16 km
Cloud details: Overcast 5000 ft
2018/06/22 12:56 KESN 221256Z 09010G14KT 10SM OVC050 22/19 A2993
KFME - Fort Meade, Maryland, USA
Distance from station: WSW 28mi, 45km
Updated: Fri, 22-Jun-2018 8:57am EDT
Mostly cloudy
Mostly cloudy
 Wind from E
Wind: E 7 mph , 11 km/h
Temperature: 68°F , 20°C
Dew Point: 63°F , 17°C
Humidity: 83%
Barometer: 29.93 inHg , 1013.5 hPa
Clouds: Mostly cloudy
Visibility: 10 miles , 16 km
Cloud details: Partly cloudy 6500 ft
Mostly cloudy 9000 ft
2018/06/22 12:57 KFME 221257Z AUTO 10006KT 10SM SCT065 BKN090 20/17 A2993 RMK AO1
 
KCGS - College Park, Maryland, USA
Distance from station: WSW 38mi, 61km
Updated: Fri, 22-Jun-2018 8:57am EDT
Overcast
Overcast
 Wind from E
Wind: E 3 mph , 6 km/h
Temperature: 68°F , 20°C
Dew Point: 63°F , 17°C
Humidity: 83%
Barometer: 29.90 inHg , 1012.5 hPa
Clouds: Overcast
Visibility: 10 miles , 16 km
Cloud details: Partly cloudy 6000 ft
Overcast 7000 ft
2018/06/22 12:57 KCGS 221257Z AUTO 08003KT 10SM SCT060 OVC070 20/17 A2990 RMK AO1 T02020169
KADW - Andrews Afb, Maryland, USA
Distance from station: SW 41mi, 66km
Updated: Fri, 22-Jun-2018 8:56am EDT
Overcast
Overcast
 Wind from ENE
Wind: ENE 10 mph , 17 km/h
Temperature: 68°F , 20°C
Dew Point: 63°F , 17°C
Humidity: 83%
Barometer: 29.88 inHg , 1011.9 hPa
Clouds: Overcast
Visibility: 10 miles , 16 km
Cloud details: Overcast 7000 ft
2018/06/22 12:56 KADW 221256Z AUTO 07009KT 10SM OVC070 20/17 A2988 RMK AO2 RAE37DZB37E39 SLP123 P0003 T01960168 $
 
KDOV - Dover Afb, Delaware, USA
Distance from station: E 42mi, 68km
Updated: Fri, 22-Jun-2018 8:56am EDT
Overcast
Overcast
 Wind from E
Wind: E 17 mph , 28 km/h, Gust: 22 mph , 35 km/h
Temperature: 70°F , 21°C
Dew Point: 64°F , 18°C
Humidity: 83%
Barometer: 29.93 inHg , 1013.5 hPa
Clouds: Overcast
Visibility: 10 miles , 16 km
Cloud details: Overcast 1300 ft
2018/06/22 12:56 KDOV 221256Z AUTO 09015G19KT 10SM OVC013 21/18 A2993 RMK AO2 SLP138 T02100184 $
KCGE - Cambridge-Dorch, Maryland, USA
Distance from station: SSE 45mi, 73km
Updated: Fri, 22-Jun-2018 8:55am EDT
Overcast
Overcast
 Wind from E
Wind: E 14 mph , 22 km/h
Temperature: 70°F , 21°C
Dew Point: 68°F , 20°C
Humidity: 94%
Barometer: 29.89 inHg , 1012.2 hPa
Clouds: Overcast
Visibility: 10 miles , 16 km
Cloud details: Few Clouds 1000 ft
Mostly cloudy 6500 ft
Overcast 8000 ft
2018/06/22 12:55 KCGE 221255Z AUTO 09012KT 10SM FEW010 BKN065 OVC080 21/20 A2989 RMK A01
 
KDCA - Washington/Natl, Washington D.c., USA
Distance from station: WSW 47mi, 76km
Updated: Fri, 22-Jun-2018 8:52am EDT
Light rain, Overcast
Light rain, Overcast
 Wind from NE
Wind: NE 8 mph , 13 km/h
Temperature: 70°F , 21°C
Dew Point: 63°F , 17°C
Humidity: 78%
Barometer: 29.89 inHg , 1012.2 hPa
Summary: Light rain
Clouds: Overcast
Visibility: 10 miles , 16 km
Cloud details: Mostly cloudy 5000 ft
Overcast 7000 ft
2018/06/22 12:52 KDCA 221252Z AUTO 05007KT 10SM -RA BKN050 OVC070 21/17 A2989 RMK AO2 SLP122 P0003 T02110172
KGAI - Gaithersburg, Maryland, USA
Distance from station: W 49mi, 78km
Updated: Fri, 22-Jun-2018 8:56am EDT
Light rain, Overcast
Light rain, Overcast
 Wind from E
Wind: E 6 mph , 9 km/h
Temperature: 66°F , 19°C
Dew Point: 64°F , 18°C
Humidity: 94%
Barometer: 29.91 inHg , 1012.9 hPa
Summary: Light rain
Clouds: Overcast
Visibility: 9 miles , 14 km
Cloud details: Few Clouds 3700 ft
Partly cloudy 4500 ft
Overcast 5500 ft
2018/06/22 12:56 KGAI 221256Z AUTO 09005KT 9SM -RA FEW037 SCT045 OVC055 19/18 A2991 RMK AO2 SLP149 P0006 T01890178
 
KILG - Wilmington, Delaware, USA
Distance from station: NE 49mi, 79km
Updated: Fri, 22-Jun-2018 8:51am EDT
Clear
Clear
 Wind from E
Wind: E 12 mph , 19 km/h
Temperature: 72°F , 22°C
Dew Point: 63°F , 17°C
Humidity: 73%
Barometer: 29.94 inHg , 1013.9 hPa
Clouds: Clear
Visibility: 10 miles , 16 km
2018/06/22 12:51 KILG 221251Z 09010KT 10SM CLR 22/17 A2994 RMK AO2 SLP139 T02170172
KDMW - Carroll Cnty, Maryland, USA
Distance from station: NW 50mi, 80km
Updated: Fri, 22-Jun-2018 8:55am EDT
Overcast
Overcast
 Wind from SE
Wind: SE 5 mph , 7 km/h
Temperature: 72°F , 22°C
Dew Point: 64°F , 18°C
Humidity: 78%
Barometer: 29.93 inHg , 1013.5 hPa
Clouds: Overcast
Visibility: 10 miles , 16 km
Cloud details: Overcast 9000 ft
2018/06/22 12:55 KDMW 221255Z AUTO 14004KT 10SM OVC090 22/18 A2993 RMK AO2